Sunday, July 22, 2018, 6:13 PM EDT
Back to Local

KPSM, Pease Air Force Base / Portsmouth

Location: Portsmouth, NH, United States Lat: 43.083
Local Time: 6:13 PM EDT (22:13 GMT) Lon: -70.817
Time Zone: US/Eastern Elev: 101 ft

Show me the last for .
Show Decoded

2018-07-22 17:22 METAR KPSM 222122Z 13006KT 6SM BR SCT007 BKN070 OVC210 23/21 A3011 RMK AO2A =
2018-07-22 16:56 METAR KPSM 222056Z 13007KT 6SM BR BKN007 BKN160 OVC220 23/21 A3011 RMK AO2A
                 RAB36E55 SLP198 P0000 60000 T02250213 50005 =
2018-07-22 16:36 METAR KPSM 222036Z 12008KT 6SM -RA BR FEW006 SCT048 BKN055 OVC160 23/22 A3011
                 RMK AO2A =
2018-07-22 15:56 METAR KPSM 221956Z 14007KT 5SM BR SCT006 BKN040 OVC070 22/21 A3011 RMK AO2A
                 RAB32E50 SLP198 P0000 T02220213 =
2018-07-22 15:50 METAR KPSM 221950Z 13007KT 6SM BR FEW006 BKN040 OVC070 22/21 A3011 RMK AO2A =
2018-07-22 15:32 METAR KPSM 221932Z 14009KT 5SM -RA BR SCT006 BKN040 OVC070 22/22 A3010 RMK AO2A
                 =
2018-07-22 15:06 METAR KPSM 221906Z 14010KT 5SM BR OVC007 22/22 A3010 RMK AO2A =
2018-07-22 14:56 METAR KPSM 221856Z 14009KT 5SM BR OVC006 22/22 A3010 RMK AO2A RAE56 SLP195 P0000
                 T02240217 =
2018-07-22 14:04 METAR KPSM 221804Z 13012KT 3SM -RA BR OVC005 22/22 A3009 RMK AO2A =
2018-07-22 13:56 METAR KPSM 221756Z 13010KT 2SM -RA BR OVC005 22/22 A3009 RMK AO2A SLP191 P0001
                 60032 T02170215 10217 20174 55005 =
2018-07-22 13:39 METAR KPSM 221739Z 12010KT 2 1/2SM -RA BR OVC005 22/22 A3009 RMK AO2A =
2018-07-22 12:56 METAR KPSM 221656Z 07007KT 2SM -RA BR OVC003 21/21 A3008 RMK AO2A SLP188 P0004
                 T02060206 =
2018-07-22 11:56 METAR KPSM 221556Z 06010G15KT 1 1/2SM -RA BR OVC004 19/19 A3010 RMK AO2A SLP195
                 P0005 T01880186 =
2018-07-22 11:41 METAR KPSM 221541Z 07006KT 1 1/4SM -RA BR OVC005 19/18 A3011 RMK AO2A =
2018-07-22 10:56 METAR KPSM 221456Z 07009KT 1SM R16/P6000FT -RA BR OVC007 18/18 A3011 RMK AO2A
                 RAE18DZB23E50RAB50 SLP198 P0002 60022 T01820180 55001 =
2018-07-22 10:23 METAR KPSM 221423Z 05012KT 3/4SM R16/5500FT -DZ BR SCT004 OVC009 18/18 A3010 RMK
                 AO2A =
2018-07-22 10:18 METAR KPSM 221418Z 06009KT 1SM R16/5000FT BR VV009 18/18 A3010 RMK AO2A =
2018-07-22 09:56 METAR KPSM 221356Z 06012KT 1SM R16/P6000FT -RA BR SCT005 OVC009 18/18 A3010 RMK
                 AO2A SLP195 P0011 T01780175 =
2018-07-22 09:38 METAR KPSM 221338Z 05012G20KT 1SM R16/P6000FT -RA BR SCT005 OVC009 18/17 A3010
                 RMK AO2A =
2018-07-22 09:31 METAR KPSM 221331Z 06012KT 2SM -RA BR SCT005 OVC011 18/17 A3010 RMK AO2A =
2018-07-22 09:09 METAR KPSM 221309Z 05011KT 3SM -RA BR SCT007 OVC010 17/17 A3011 RMK AO2A =
2018-07-22 08:56 METAR KPSM 221256Z 06013KT 1 1/4SM +RA BR OVC005 18/17 A3011 RMK AO2A RAE17B45
                 SLP198 P0009 T01750170 =
2018-07-22 08:53 METAR KPSM 221253Z 05010KT 1SM R16/P6000FT +RA BR OVC005 18/17 A3011 RMK AO2A =
2018-07-22 08:45 METAR KPSM 221245Z 05012KT 1 1/2SM -RA BR OVC005 18/17 A3010 RMK AO2A =
2018-07-22 08:33 METAR KPSM 221233Z 06013KT 1 1/4SM BR OVC006 18/17 A3010 RMK AO2A =
2018-07-22 08:17 METAR KPSM 221217Z 05014KT 1 1/4SM BR OVC007 18/17 A3011 RMK AO2A =
2018-07-22 07:56 METAR KPSM 221156Z 07010KT 1 1/2SM -RA BR OVC009 18/18 A3011 RMK AO2A
                 RAB13E48B55 SLP198 P0000 60000 T01820175 10188 20173 50004 =
2018-07-22 07:48 METAR KPSM 221148Z 07011KT 1 1/4SM BR OVC009 18/17 A3011 RMK AO2A =
2018-07-22 07:40 METAR KPSM 221140Z 07011KT 1 1/2SM -RA BR SCT007 OVC010 18/17 A3011 RMK AO2A =
2018-07-22 07:30 METAR KPSM 221130Z 06011G19KT 2SM -RA BR SCT008 OVC010 19/17 A3011 RMK AO2A =
2018-07-22 07:13 METAR KPSM 221113Z 06008KT 6SM -RA BR OVC011 19/17 A3010 RMK AO2A =
2018-07-22 06:56 METAR KPSM 221056Z 06011KT 7SM BKN010 OVC018 19/16 A3010 RMK AO2A SLP195
                 T01880164 =
2018-07-22 05:56 METAR KPSM 220956Z 07009KT 10SM BKN010 OVC070 18/16 A3010 RMK AO2A SLP195
                 T01800158 =
2018-07-22 05:14 METAR KPSM 220914Z 05006KT 10SM BKN011 BKN080 OVC140 18/15 A3010 RMK AO2A =
2018-07-22 04:56 METAR KPSM 220856Z 06007KT 10SM SCT013 BKN080 OVC140 18/15 A3010 RMK AO2A SLP195
                 T01780154 55005 =
2018-07-22 04:34 METAR KPSM 220834Z 07006KT 8SM BKN013 OVC080 18/15 A3011 RMK A02A =
2018-07-22 03:56 METAR KPSM 220756Z 05006KT 10SM SCT015 BKN085 17/15 A3011 RMK AO2A SLP198
                 T01740152 =
2018-07-22 02:56 METAR KPSM 220656Z 05004KT 10SM SCT014 BKN085 17/15 A3010 RMK AO2A SLP195
                 T01740152 =
2018-07-22 01:56 METAR KPSM 220556Z 10004KT 10SM BKN015 17/15 A3012 RMK AO2A SLP201 T01730149
                 10187 20170 55007 =
2018-07-22 01:46 METAR KPSM 220546Z 00000KT 10SM BKN015 17/15 A3011 RMK AO2A =
2018-07-22 00:56 METAR KPSM 220456Z 06004KT 10SM SCT017 BKN200 17/15 A3011 RMK AO2A SLP198
                 T01730146 402380140 =
2018-07-22 00:36 METAR KPSM 220436Z 04004KT 10SM SCT017 BKN200 18/15 A3011 RMK AO2A =
2018-07-21 23:56 METAR KPSM 220356Z 03003KT 10SM BKN018 18/15 A3013 RMK AO2A OVC V BKN SLP205
                 T01780152 =
2018-07-21 22:56 METAR KPSM 220256Z 11005KT 10SM BKN016 BKN220 17/16 A3014 RMK AO2A SLP208
                 T01720155 58002 =
2018-07-21 22:16 METAR KPSM 220216Z 09004KT 10SM BKN014 17/16 A3014 RMK AO2A BKN V SCT =
2018-07-21 21:56 METAR KPSM 220156Z 07004KT 10SM FEW014 SCT200 BKN250 18/16 A3014 RMK AO2A SLP208
                 T01750158 =
2018-07-21 20:56 METAR KPSM 220056Z 09005KT 10SM FEW017 SCT180 BKN250 18/16 A3015 RMK AO2A SLP212
                 T01810161 =
2018-07-21 19:56 METAR KPSM 212356Z 12006KT 10SM FEW017 SCT200 BKN250 19/16 A3014 RMK AO2A SLP208
                 T01880156 10238 20188 =
2018-07-21 18:56 METAR KPSM 212256Z 13008KT 10SM SCT017 BKN250 20/16 A3014 RMK AO2A SLP208
                 T02010155 =

Support USWX by starting your Amazon purchase here.